createdAt,value
2023-04-12T00:00:31.998Z,11.84
2023-04-12T00:03:20.436Z,11.88
2023-04-12T00:05:55.382Z,11.89
2023-04-12T00:08:33.598Z,11.90
2023-04-12T00:11:04.780Z,11.91
2023-04-12T00:13:35.616Z,11.94
2023-04-12T00:16:06.981Z,11.97
2023-04-12T00:18:37.721Z,11.95
2023-04-12T00:21:10.485Z,11.92
2023-04-12T00:23:41.270Z,11.87
2023-04-12T00:26:12.041Z,11.86
2023-04-12T00:28:43.476Z,11.87
2023-04-12T00:31:14.378Z,11.86
2023-04-12T00:33:45.101Z,11.84
2023-04-12T00:36:16.002Z,11.79
2023-04-12T00:38:46.976Z,11.75
2023-04-12T00:41:18.698Z,11.73
2023-04-12T00:43:50.008Z,11.72
2023-04-12T00:46:20.875Z,11.73
2023-04-12T00:48:51.781Z,11.74
2023-04-12T00:51:22.625Z,11.72
2023-04-12T00:53:53.642Z,11.69
2023-04-12T00:56:24.802Z,11.67
2023-04-12T00:58:55.611Z,11.67
2023-04-12T01:01:28.322Z,11.68
2023-04-12T01:04:01.662Z,11.70
2023-04-12T01:06:35.671Z,11.74
2023-04-12T01:09:08.454Z,11.73
2023-04-12T01:11:40.020Z,11.72
2023-04-12T01:14:11.171Z,11.72
2023-04-12T01:16:44.581Z,11.74
2023-04-12T01:19:20.023Z,11.78
2023-04-12T01:21:53.723Z,11.80
2023-04-12T01:24:29.198Z,11.82
2023-04-12T01:27:02.185Z,11.84
2023-04-12T01:29:32.873Z,11.84
2023-04-12T01:32:03.957Z,11.86
2023-04-12T01:34:34.923Z,11.82
2023-04-12T01:37:06.358Z,11.76
2023-04-12T01:39:37.130Z,11.72
2023-04-12T01:42:08.040Z,11.69
2023-04-12T01:44:38.732Z,11.66
2023-04-12T01:47:09.492Z,11.60
2023-04-12T01:49:41.572Z,11.51
2023-04-12T01:52:14.183Z,11.44
2023-04-12T01:54:44.943Z,11.40
2023-04-12T01:57:15.787Z,11.40
2023-04-12T01:59:46.508Z,11.42
2023-04-12T02:02:17.304Z,11.43
2023-04-12T02:04:48.259Z,11.43
2023-04-12T02:07:20.682Z,11.45
2023-04-12T02:09:51.456Z,11.50
2023-04-12T02:12:23.842Z,11.54
2023-04-12T02:14:54.630Z,11.57
2023-04-12T02:17:25.575Z,11.59
2023-04-12T02:19:57.866Z,11.54
2023-04-12T02:22:28.707Z,11.48
2023-04-12T02:25:00.110Z,11.46
2023-04-12T02:27:30.855Z,11.47
2023-04-12T02:30:01.655Z,11.50
2023-04-12T02:32:33.013Z,11.50
2023-04-12T02:35:03.829Z,11.50
2023-04-12T02:37:34.298Z,11.53
2023-04-12T02:40:06.756Z,11.55
2023-04-12T02:42:37.917Z,11.59
2023-04-12T02:45:09.706Z,11.61
2023-04-12T02:47:41.181Z,11.63
2023-04-12T02:50:12.133Z,11.64
2023-04-12T02:52:43.128Z,11.64
2023-04-12T02:55:14.007Z,11.61
2023-04-12T02:57:45.443Z,11.60
2023-04-12T03:00:16.944Z,11.59
2023-04-12T03:02:50.171Z,11.59
2023-04-12T03:05:21.167Z,11.61
2023-04-12T03:07:52.023Z,11.61
2023-04-12T03:10:22.842Z,11.60
2023-04-12T03:12:53.520Z,11.57
2023-04-12T03:15:24.677Z,11.52
2023-04-12T03:17:55.633Z,11.49
2023-04-12T03:20:28.483Z,11.51
2023-04-12T03:22:59.364Z,11.54
2023-04-12T03:25:30.076Z,11.56
2023-04-12T03:28:00.935Z,11.57
2023-04-12T03:30:32.083Z,11.57
2023-04-12T03:33:02.951Z,11.57
2023-04-12T03:35:33.710Z,11.59
2023-04-12T03:38:04.537Z,11.62
2023-04-12T03:40:35.638Z,11.64
2023-04-12T03:43:06.344Z,11.65
2023-04-12T03:45:37.210Z,11.66
2023-04-12T03:48:08.367Z,11.67
2023-04-12T03:50:44.575Z,11.69
2023-04-12T03:53:15.766Z,11.70
2023-04-12T03:55:46.693Z,11.69
2023-04-12T03:58:19.241Z,11.68
2023-04-12T04:00:50.107Z,11.67
2023-04-12T04:03:27.106Z,11.67
2023-04-12T04:05:58.156Z,11.69
2023-04-12T04:08:32.132Z,11.71
2023-04-12T04:11:02.921Z,11.72
2023-04-12T04:13:33.692Z,11.74
2023-04-12T04:16:06.209Z,11.77
2023-04-12T04:18:37.140Z,11.78
2023-04-12T04:21:09.071Z,11.77
2023-04-12T04:23:39.865Z,11.78
2023-04-12T04:26:11.076Z,11.80
2023-04-12T04:28:45.198Z,11.82
2023-04-12T04:31:17.950Z,11.84
2023-04-12T04:33:49.586Z,11.87
2023-04-12T04:36:20.850Z,11.86
2023-04-12T04:38:52.337Z,11.87
2023-04-12T04:41:24.384Z,11.91
2023-04-12T04:43:55.596Z,11.94
2023-04-12T04:46:30.680Z,11.95
2023-04-12T04:49:01.482Z,11.97
2023-04-12T04:51:32.237Z,11.99
2023-04-12T04:54:03.560Z,12.02
2023-04-12T04:56:34.406Z,12.01
2023-04-12T04:59:05.311Z,11.99
2023-04-12T05:01:36.857Z,11.94
2023-04-12T05:04:07.958Z,11.88
2023-04-12T05:06:38.923Z,11.87
2023-04-12T05:09:10.298Z,11.87
2023-04-12T05:11:41.188Z,11.90
2023-04-12T05:14:12.726Z,11.91
2023-04-12T05:16:43.651Z,11.93
2023-04-12T05:19:14.531Z,11.95
2023-04-12T05:21:45.365Z,11.97
2023-04-12T05:24:16.266Z,11.98
2023-04-12T05:26:47.522Z,11.99
2023-04-12T05:29:18.404Z,12.00
2023-04-12T05:31:49.320Z,11.99
2023-04-12T05:34:20.158Z,11.98
2023-04-12T05:36:51.125Z,11.99
2023-04-12T05:39:21.878Z,12.01
2023-04-12T05:41:52.761Z,12.02
2023-04-12T05:44:23.532Z,12.06
2023-04-12T05:46:54.336Z,12.09
2023-04-12T05:49:25.212Z,12.12
2023-04-12T05:51:56.007Z,12.14
2023-04-12T05:54:27.317Z,12.16
2023-04-12T05:56:58.106Z,12.18
2023-04-12T05:59:28.823Z,12.21
2023-04-12T06:01:59.661Z,12.23
2023-04-12T06:04:46.618Z,12.26
2023-04-12T06:07:21.382Z,12.31
2023-04-12T06:09:52.511Z,12.33
2023-04-12T06:12:23.182Z,12.35
2023-04-12T06:14:53.988Z,12.41
2023-04-12T06:17:24.943Z,12.46
2023-04-12T06:19:56.004Z,12.47
2023-04-12T06:22:26.792Z,12.51
2023-04-12T06:24:57.513Z,12.56
2023-04-12T06:27:28.213Z,12.59
2023-04-12T06:29:59.121Z,12.59
2023-04-12T06:32:29.964Z,12.58
2023-04-12T06:35:00.845Z,12.56
2023-04-12T06:37:31.616Z,12.57
2023-04-12T06:40:02.461Z,12.57
2023-04-12T06:42:33.204Z,12.58
2023-04-12T06:45:04.137Z,12.62
2023-04-12T06:47:35.071Z,12.65
2023-04-12T06:50:07.155Z,12.69
2023-04-12T06:52:37.872Z,12.73
2023-04-12T06:55:10.116Z,12.74
2023-04-12T06:57:40.774Z,12.76
2023-04-12T07:00:13.145Z,12.76
2023-04-12T07:02:44.181Z,12.73
2023-04-12T07:05:15.283Z,12.72
2023-04-12T07:07:46.023Z,12.74
2023-04-12T07:10:17.015Z,12.77
2023-04-12T07:12:48.050Z,12.79
2023-04-12T07:15:18.891Z,12.82
2023-04-12T07:17:49.721Z,12.83
2023-04-12T07:20:20.645Z,12.82
2023-04-12T07:22:51.638Z,12.81
2023-04-12T07:25:22.308Z,12.83
2023-04-12T07:27:53.069Z,12.85
2023-04-12T07:30:23.822Z,12.80
2023-04-12T07:32:58.441Z,12.70
2023-04-12T07:35:34.176Z,12.59
2023-04-12T07:38:05.052Z,12.51
2023-04-12T07:40:35.902Z,12.44
2023-04-12T07:43:06.769Z,12.39
2023-04-12T07:45:39.074Z,12.42
2023-04-12T07:48:09.887Z,12.47
2023-04-12T07:50:41.330Z,12.51
2023-04-12T07:53:21.651Z,12.54
2023-04-12T07:55:52.388Z,12.57
2023-04-12T07:58:23.753Z,12.61
2023-04-12T08:00:54.708Z,12.64
2023-04-12T08:03:25.651Z,12.65
2023-04-12T08:05:56.666Z,12.67
2023-04-12T08:08:27.461Z,12.69
2023-04-12T08:10:58.112Z,12.72
2023-04-12T08:13:28.984Z,12.73
2023-04-12T08:15:59.787Z,12.75
2023-04-12T08:18:30.999Z,12.78
2023-04-12T08:21:01.913Z,12.84
2023-04-12T08:23:32.578Z,12.92
2023-04-12T08:26:04.453Z,13.00
2023-04-12T08:28:35.701Z,13.07
2023-04-12T08:31:07.972Z,13.11
2023-04-12T08:33:38.825Z,13.13
2023-04-12T08:36:10.841Z,13.21
2023-04-12T08:38:46.081Z,13.27
2023-04-12T08:41:17.518Z,13.34
2023-04-12T08:43:48.926Z,13.44
2023-04-12T08:46:19.925Z,13.52
2023-04-12T08:48:54.547Z,13.60
2023-04-12T08:51:25.296Z,13.69
2023-04-12T08:53:56.466Z,13.73
2023-04-12T08:56:27.542Z,13.76
2023-04-12T08:58:58.333Z,13.81
2023-04-12T09:01:29.192Z,13.83
2023-04-12T09:04:00.546Z,13.84
2023-04-12T09:06:31.707Z,13.86
2023-04-12T09:09:08.138Z,13.89
2023-04-12T09:11:39.167Z,13.91
2023-04-12T09:14:23.349Z,13.90
2023-04-12T09:16:54.327Z,13.95
2023-04-12T09:19:34.900Z,14.02
2023-04-12T09:22:05.639Z,14.07
2023-04-12T09:24:42.130Z,14.14
2023-04-12T09:27:13.798Z,14.20
2023-04-12T09:29:45.768Z,14.21
2023-04-12T09:32:16.505Z,14.24
2023-04-12T09:34:56.183Z,14.29
2023-04-12T09:37:27.012Z,14.32
2023-04-12T09:40:04.671Z,14.32
2023-04-12T09:42:36.318Z,14.39
2023-04-12T09:45:20.302Z,14.43
2023-04-12T09:47:51.198Z,14.45
2023-04-12T09:50:23.330Z,14.48
2023-04-12T09:52:54.363Z,14.47
2023-04-12T09:55:25.360Z,14.50
2023-04-12T09:57:56.805Z,14.54
2023-04-12T10:00:28.044Z,14.63
2023-04-12T10:02:59.144Z,14.69
2023-04-12T10:05:30.379Z,14.77
2023-04-12T10:08:01.300Z,14.85
2023-04-12T10:10:32.617Z,14.97
2023-04-12T10:13:03.315Z,15.03
2023-04-12T10:15:34.256Z,15.02
2023-04-12T10:18:05.178Z,15.00
2023-04-12T10:20:36.290Z,15.02
2023-04-12T10:23:07.022Z,15.01
2023-04-12T10:25:38.833Z,15.05
2023-04-12T10:28:19.741Z,15.15
2023-04-12T10:30:52.313Z,15.24
2023-04-12T10:33:26.771Z,15.30
2023-04-12T10:36:00.412Z,15.29
2023-04-12T10:38:37.510Z,15.22
2023-04-12T10:41:15.481Z,15.18
2023-04-12T10:43:46.733Z,15.21
2023-04-12T10:46:34.994Z,15.24
2023-04-12T10:49:10.646Z,15.23
2023-04-12T10:51:42.447Z,15.22
2023-04-12T10:54:31.794Z,15.25
2023-04-12T10:57:02.745Z,15.31
2023-04-12T10:59:47.961Z,15.25
2023-04-12T11:02:19.142Z,15.20
2023-04-12T11:05:10.382Z,15.20
2023-04-12T11:07:42.259Z,15.22
2023-04-12T11:10:16.851Z,15.24
2023-04-12T11:12:51.432Z,15.26
2023-04-12T11:15:22.332Z,15.29
2023-04-12T11:17:56.475Z,15.31
2023-04-12T11:20:27.851Z,15.40
2023-04-12T11:22:58.627Z,15.55
2023-04-12T11:25:30.066Z,15.70
2023-04-12T11:28:01.895Z,15.83
2023-04-12T11:30:32.748Z,15.98
2023-04-12T11:33:03.478Z,16.07
2023-04-12T11:35:34.321Z,16.12
2023-04-12T11:38:05.216Z,16.14
2023-04-12T11:40:36.060Z,16.18
2023-04-12T11:43:06.845Z,16.27
2023-04-12T11:45:37.614Z,16.31
2023-04-12T11:48:10.525Z,16.36
2023-04-12T11:50:41.890Z,16.37
2023-04-12T11:53:13.499Z,16.47
2023-04-12T11:55:47.763Z,16.65
2023-04-12T11:58:19.243Z,16.77
2023-04-12T12:00:49.866Z,16.83
2023-04-12T12:03:21.312Z,16.87
2023-04-12T12:05:52.531Z,16.78
2023-04-12T12:08:24.567Z,16.72
2023-04-12T12:11:06.391Z,16.75
2023-04-12T12:13:48.928Z,16.76
2023-04-12T12:16:19.920Z,16.81
2023-04-12T12:18:52.785Z,16.87
2023-04-12T12:21:23.924Z,16.93
2023-04-12T12:23:56.581Z,16.88
2023-04-12T12:26:28.526Z,16.86
2023-04-12T12:29:00.451Z,16.90
2023-04-12T12:31:33.146Z,17.01
2023-04-12T12:34:07.443Z,17.11
2023-04-12T12:36:39.757Z,17.17
2023-04-12T12:39:12.032Z,17.26
2023-04-12T12:41:43.311Z,17.40
2023-04-12T12:44:14.066Z,17.49
2023-04-12T12:46:55.236Z,17.48
2023-04-12T12:49:31.739Z,17.44
2023-04-12T12:52:02.353Z,17.40
2023-04-12T12:54:41.203Z,17.32
2023-04-12T12:57:12.446Z,17.38
2023-04-12T12:59:43.162Z,17.44
2023-04-12T13:02:15.751Z,17.66
2023-04-12T13:04:46.860Z,18.08
2023-04-12T13:07:17.766Z,18.52
2023-04-12T13:09:48.552Z,18.85
2023-04-12T13:12:22.114Z,19.15
2023-04-12T13:14:57.941Z,19.52
2023-04-12T13:17:33.950Z,19.87
2023-04-12T13:20:05.065Z,20.10
2023-04-12T13:22:35.783Z,20.36
2023-04-12T13:25:07.014Z,20.55
2023-04-12T13:27:38.058Z,20.58
2023-04-12T13:30:09.774Z,20.66
2023-04-12T13:32:40.567Z,20.87
2023-04-12T13:35:11.415Z,20.82
2023-04-12T13:37:42.249Z,20.70
2023-04-12T13:40:13.370Z,20.65
2023-04-12T13:42:44.420Z,20.92
2023-04-12T13:45:15.031Z,21.26
2023-04-12T13:47:45.803Z,21.67
2023-04-12T13:50:16.462Z,21.94
2023-04-12T13:52:47.248Z,22.07
2023-04-12T13:55:18.059Z,22.03
2023-04-12T13:57:48.886Z,22.19
2023-04-12T14:00:20.958Z,22.33
2023-04-12T14:02:51.849Z,21.91
2023-04-12T14:05:22.800Z,21.15
2023-04-12T14:07:53.743Z,20.42
2023-04-12T14:10:24.662Z,19.76
2023-04-12T14:12:55.577Z,19.25
2023-04-12T14:15:26.297Z,18.92
2023-04-12T14:17:57.234Z,18.58
2023-04-12T14:20:28.141Z,18.31
2023-04-12T14:22:58.892Z,17.95
2023-04-12T14:25:29.568Z,17.61
2023-04-12T14:28:00.286Z,17.38
2023-04-12T14:30:31.441Z,17.28
2023-04-12T14:33:02.290Z,17.20
2023-04-12T14:35:33.037Z,17.20
2023-04-12T14:38:04.741Z,17.43
2023-04-12T14:40:35.437Z,17.63
2023-04-12T14:43:06.281Z,17.69
2023-04-12T14:45:37.824Z,17.67
2023-04-12T14:48:08.548Z,17.52
2023-04-12T14:50:39.507Z,17.40
2023-04-12T14:53:11.340Z,17.36
2023-04-12T14:55:42.118Z,17.38
2023-04-12T14:58:12.759Z,17.28
2023-04-12T15:00:43.543Z,17.13
2023-04-12T15:03:14.597Z,16.96
2023-04-12T15:05:45.831Z,16.75
2023-04-12T15:08:16.684Z,16.59
2023-04-12T15:10:47.955Z,16.47
2023-04-12T15:13:20.374Z,16.38
2023-04-12T15:15:52.191Z,16.32
2023-04-12T15:18:23.006Z,16.28
2023-04-12T15:20:53.887Z,16.25
2023-04-12T15:23:24.589Z,16.26
2023-04-12T15:26:00.111Z,16.22
2023-04-12T15:28:30.906Z,16.16
2023-04-12T15:31:02.408Z,16.13
2023-04-12T15:33:34.660Z,16.06
2023-04-12T15:36:05.833Z,15.97
2023-04-12T15:38:38.200Z,15.92
2023-04-12T15:41:09.313Z,15.84
2023-04-12T15:43:41.897Z,15.77
2023-04-12T15:46:12.885Z,15.74
2023-04-12T15:48:44.427Z,15.71
2023-04-12T15:51:33.462Z,15.68
2023-04-12T15:54:04.095Z,15.61
2023-04-12T15:56:35.622Z,15.59
2023-04-12T15:59:06.301Z,15.59
2023-04-12T16:01:38.141Z,15.60
2023-04-12T16:04:09.121Z,15.58
2023-04-12T16:06:40.752Z,15.51
2023-04-12T16:09:12.184Z,15.35
2023-04-12T16:11:43.995Z,15.22
2023-04-12T16:14:14.964Z,15.17
2023-04-12T16:16:46.977Z,15.11
2023-04-12T16:19:18.903Z,15.09
2023-04-12T16:21:51.343Z,15.03
2023-04-12T16:24:23.357Z,14.96
2023-04-12T16:26:57.631Z,14.93
2023-04-12T16:29:29.417Z,14.91
2023-04-12T16:32:02.157Z,14.85
2023-04-12T16:34:33.881Z,14.79
2023-04-12T16:37:05.667Z,14.74
2023-04-12T16:39:36.577Z,14.71
2023-04-12T16:42:11.964Z,14.68
2023-04-12T16:44:43.626Z,14.63
2023-04-12T16:47:16.383Z,14.58
2023-04-12T16:49:48.917Z,14.56
2023-04-12T16:52:20.670Z,14.54
2023-04-12T16:54:58.583Z,14.51
2023-04-12T16:57:33.017Z,14.49
2023-04-12T17:00:13.715Z,14.46
2023-04-12T17:02:47.451Z,14.43
2023-04-12T17:05:19.992Z,14.39
2023-04-12T17:07:51.605Z,14.43
2023-04-12T17:10:23.312Z,14.44
2023-04-12T17:12:54.891Z,14.43
2023-04-12T17:15:26.896Z,14.43
2023-04-12T17:18:02.851Z,14.44
2023-04-12T17:20:33.926Z,14.39
2023-04-12T17:23:05.319Z,14.33
2023-04-12T17:25:36.240Z,14.28
2023-04-12T17:28:14.566Z,14.28
2023-04-12T17:30:46.190Z,14.26
2023-04-12T17:33:18.261Z,14.22
2023-04-12T17:35:49.207Z,14.19
2023-04-12T17:38:20.109Z,14.20
2023-04-12T17:40:51.125Z,14.18
2023-04-12T17:43:21.840Z,14.16
2023-04-12T17:45:52.717Z,14.15
2023-04-12T17:48:23.550Z,14.12
2023-04-12T17:50:55.255Z,14.08
2023-04-12T17:53:26.141Z,14.03
2023-04-12T17:55:57.132Z,14.05
2023-04-12T17:58:27.880Z,14.01
2023-04-12T18:00:58.695Z,14.01
2023-04-12T18:03:30.180Z,14.02
2023-04-12T18:06:01.263Z,14.02
2023-04-12T18:08:32.256Z,14.01
2023-04-12T18:11:06.350Z,13.99
2023-04-12T18:13:37.108Z,13.97
2023-04-12T18:16:08.367Z,13.96
2023-04-12T18:18:39.451Z,13.92
2023-04-12T18:21:10.801Z,13.91
2023-04-12T18:23:42.686Z,13.93
2023-04-12T18:26:15.164Z,13.99
2023-04-12T18:28:46.157Z,14.05
2023-04-12T18:31:19.410Z,14.12
2023-04-12T18:33:51.124Z,14.17
2023-04-12T18:36:22.038Z,14.17
2023-04-12T18:38:52.853Z,14.15
2023-04-12T18:41:23.782Z,14.17
2023-04-12T18:43:54.846Z,14.18
2023-04-12T18:46:27.102Z,14.18
2023-04-12T18:48:58.867Z,14.18
2023-04-12T18:51:30.296Z,14.17
2023-04-12T18:54:02.071Z,14.16
2023-04-12T18:56:32.774Z,14.15
2023-04-12T18:59:03.984Z,14.15
2023-04-12T19:01:36.199Z,14.18
2023-04-12T19:04:08.180Z,14.19
2023-04-12T19:06:38.955Z,14.21
2023-04-12T19:09:11.438Z,14.23
2023-04-12T19:11:42.258Z,14.25
2023-04-12T19:14:13.323Z,14.26
2023-04-12T19:16:44.421Z,14.27
2023-04-12T19:19:16.965Z,14.28
2023-04-12T19:21:48.008Z,14.28
2023-04-12T19:24:18.843Z,14.26
2023-04-12T19:26:51.097Z,14.20
2023-04-12T19:29:22.954Z,14.17
2023-04-12T19:31:55.047Z,14.16
2023-04-12T19:34:28.036Z,14.17
2023-04-12T19:36:58.899Z,14.18
2023-04-12T19:39:29.958Z,14.18
2023-04-12T19:42:02.401Z,14.16
2023-04-12T19:44:33.715Z,14.13
2023-04-12T19:47:04.545Z,14.09
2023-04-12T19:49:36.270Z,14.04
2023-04-12T19:52:07.732Z,13.96
2023-04-12T19:54:39.762Z,13.88
2023-04-12T19:57:10.893Z,13.85
2023-04-12T19:59:42.755Z,13.83
2023-04-12T20:02:13.624Z,13.83
2023-04-12T20:04:45.029Z,13.83
2023-04-12T20:07:15.791Z,13.81
2023-04-12T20:09:46.544Z,13.77
2023-04-12T20:12:19.106Z,13.71
2023-04-12T20:14:49.919Z,13.66
2023-04-12T20:17:20.532Z,13.64
2023-04-12T20:19:53.569Z,13.63
2023-04-12T20:22:25.882Z,13.62
2023-04-12T20:24:58.284Z,13.62
2023-04-12T20:27:30.961Z,13.58
2023-04-12T20:30:03.137Z,13.54
2023-04-12T20:32:34.524Z,13.53
2023-04-12T20:35:05.700Z,13.48
2023-04-12T20:37:36.888Z,13.42
2023-04-12T20:40:09.586Z,13.36
2023-04-12T20:42:42.550Z,13.31
2023-04-12T20:45:14.536Z,13.26
2023-04-12T20:47:45.278Z,13.21
2023-04-12T20:50:17.629Z,13.18
2023-04-12T20:52:48.813Z,13.18
2023-04-12T20:55:19.793Z,13.15
2023-04-12T20:57:50.649Z,13.13
2023-04-12T21:00:23.880Z,13.11
2023-04-12T21:02:54.927Z,13.07
2023-04-12T21:05:27.474Z,13.06
2023-04-12T21:07:58.289Z,13.06
2023-04-12T21:10:29.001Z,13.05
2023-04-12T21:19:15.538Z,13.04
2023-04-12T21:21:46.207Z,13.01
2023-04-12T21:24:18.148Z,12.99
2023-04-12T21:26:48.918Z,12.98
2023-04-12T21:29:19.778Z,12.93
2023-04-12T21:31:50.671Z,12.88
2023-04-12T21:34:21.950Z,12.85
2023-04-12T21:36:54.372Z,12.82
2023-04-12T21:39:25.280Z,12.79
2023-04-12T21:41:56.076Z,12.76
2023-04-12T21:44:26.986Z,12.74
2023-04-12T21:46:57.654Z,12.66
2023-04-12T21:49:30.219Z,12.63
2023-04-12T21:52:00.887Z,12.59
2023-04-12T21:54:35.126Z,12.56
2023-04-12T21:57:06.549Z,12.55
2023-04-12T21:59:37.176Z,12.55
2023-04-12T22:02:08.530Z,12.54
2023-04-12T22:04:39.516Z,12.53
2023-04-12T22:07:13.096Z,12.52
2023-04-12T22:09:44.006Z,12.51
2023-04-12T22:12:14.865Z,12.49
2023-04-12T22:14:49.979Z,12.49
2023-04-12T22:17:21.554Z,12.47
2023-04-12T22:19:56.676Z,12.43
2023-04-12T22:22:27.442Z,12.40
2023-04-12T22:24:58.067Z,12.37
2023-04-12T22:27:29.884Z,12.36
2023-04-12T22:30:00.787Z,12.33
2023-04-12T22:32:32.193Z,12.27
2023-04-12T22:35:08.331Z,12.22
2023-04-12T22:37:44.260Z,12.19
2023-04-12T22:40:15.505Z,12.17
2023-04-12T22:42:47.509Z,12.17
2023-04-12T22:45:18.513Z,12.17
2023-04-12T22:47:49.302Z,12.17
2023-04-12T22:50:20.114Z,12.18
2023-04-12T22:52:50.898Z,12.15
2023-04-12T22:55:22.399Z,12.12
2023-04-12T22:57:53.190Z,12.12
2023-04-12T23:00:25.318Z,12.12
2023-04-12T23:02:56.249Z,12.12
2023-04-12T23:05:27.657Z,12.13
2023-04-12T23:07:59.154Z,12.14
2023-04-12T23:10:30.042Z,12.16
2023-04-12T23:13:00.808Z,12.17
2023-04-12T23:15:31.770Z,12.17
2023-04-12T23:18:03.019Z,12.15
2023-04-12T23:20:33.877Z,12.15
2023-04-12T23:23:04.808Z,12.15
2023-04-12T23:25:43.040Z,12.15
2023-04-12T23:28:14.784Z,12.16
2023-04-12T23:30:47.873Z,12.17
2023-04-12T23:33:20.300Z,12.16
2023-04-12T23:35:52.887Z,12.14
2023-04-12T23:38:27.273Z,12.11
2023-04-12T23:40:58.225Z,12.08
2023-04-12T23:43:29.455Z,12.04
2023-04-12T23:46:00.262Z,12.03
2023-04-12T23:48:33.507Z,12.04
2023-04-12T23:51:04.179Z,12.04
2023-04-12T23:53:35.444Z,12.04
2023-04-12T23:56:07.044Z,12.03
2023-04-12T23:58:37.927Z,12.03
